createdAt,value
2023-09-02T00:01:01.102Z,17.14
2023-09-02T00:03:28.820Z,17.03
2023-09-02T00:05:56.468Z,17.18
2023-09-02T00:08:23.814Z,17.19
2023-09-02T00:10:51.450Z,17.28
2023-09-02T00:13:19.059Z,17.35
2023-09-02T00:15:46.605Z,17.33
2023-09-02T00:18:14.377Z,17.31
2023-09-02T00:20:41.720Z,17.17
2023-09-02T00:23:08.973Z,17.21
2023-09-02T00:25:36.624Z,17.06
2023-09-02T00:28:04.149Z,16.88
2023-09-02T00:30:31.503Z,16.84
2023-09-02T00:32:59.216Z,16.79
2023-09-02T00:35:26.657Z,16.91
2023-09-02T00:37:54.451Z,16.97
2023-09-02T00:40:23.773Z,16.90
2023-09-02T00:42:51.845Z,16.93
2023-09-02T00:45:23.261Z,16.95
2023-09-02T00:47:51.977Z,16.70
2023-09-02T00:50:19.339Z,16.83
2023-09-02T00:52:48.260Z,16.76
2023-09-02T00:55:16.717Z,16.68
2023-09-02T00:57:45.522Z,16.43
2023-09-02T01:00:14.686Z,16.46
2023-09-02T01:02:43.875Z,16.41
2023-09-02T01:05:11.431Z,16.10
2023-09-02T01:07:40.464Z,16.11
2023-09-02T01:10:09.279Z,16.15
2023-09-02T01:12:36.782Z,16.22
2023-09-02T01:15:04.840Z,16.23
2023-09-02T01:17:33.608Z,16.21
2023-09-02T01:20:04.785Z,16.08
2023-09-02T01:22:43.138Z,16.27
2023-09-02T01:25:19.930Z,16.13
2023-09-02T01:28:01.202Z,16.22
2023-09-02T01:30:34.389Z,16.22
2023-09-02T01:33:04.720Z,16.25
2023-09-02T01:35:35.905Z,16.19
2023-09-02T01:38:05.325Z,16.23
2023-09-02T01:40:34.482Z,16.10
2023-09-02T01:43:03.812Z,16.02
2023-09-02T01:45:35.421Z,16.03
2023-09-02T01:48:04.747Z,15.89
2023-09-02T01:50:34.178Z,15.86
2023-09-02T01:53:02.727Z,15.49
2023-09-02T01:55:30.608Z,15.51
2023-09-02T01:57:59.358Z,15.32
2023-09-02T02:00:26.865Z,15.41
2023-09-02T02:02:55.969Z,15.50
2023-09-02T02:05:38.942Z,15.49
2023-09-02T02:08:13.300Z,15.20
2023-09-02T02:10:43.127Z,15.40
2023-09-02T02:13:10.805Z,15.11
2023-09-02T02:15:38.124Z,15.31
2023-09-02T02:18:05.958Z,15.32
2023-09-02T02:20:44.039Z,15.31
2023-09-02T02:23:11.939Z,15.41
2023-09-02T02:25:39.601Z,15.21
2023-09-02T02:28:07.800Z,15.39
2023-09-02T02:30:35.066Z,15.49
2023-09-02T02:33:02.837Z,15.37
2023-09-02T02:35:33.520Z,15.28
2023-09-02T02:38:01.135Z,15.38
2023-09-02T02:40:29.030Z,15.21
2023-09-02T02:42:56.309Z,15.12
2023-09-02T02:45:23.762Z,14.99
2023-09-02T02:47:51.507Z,15.15
2023-09-02T02:50:18.858Z,15.20
2023-09-02T02:52:46.467Z,15.13
2023-09-02T02:55:14.309Z,15.19
2023-09-02T02:57:41.806Z,15.14
2023-09-02T03:00:10.393Z,15.12
2023-09-02T03:02:38.349Z,14.99
2023-09-02T03:05:06.222Z,15.06
2023-09-02T03:07:34.621Z,14.90
2023-09-02T03:10:02.437Z,14.95
2023-09-02T03:12:30.682Z,15.03
2023-09-02T03:14:58.485Z,14.95
2023-09-02T03:17:26.270Z,14.88
2023-09-02T03:19:53.800Z,14.78
2023-09-02T03:22:21.302Z,14.94
2023-09-02T03:24:55.729Z,14.95
2023-09-02T03:27:23.986Z,14.90
2023-09-02T03:29:52.865Z,14.90
2023-09-02T03:32:20.274Z,14.73
2023-09-02T03:34:47.807Z,14.57
2023-09-02T03:37:15.488Z,14.72
2023-09-02T03:39:42.974Z,14.67
2023-09-02T03:42:11.362Z,14.77
2023-09-02T03:44:39.062Z,14.97
2023-09-02T03:47:06.566Z,14.76
2023-09-02T03:49:33.983Z,14.91
2023-09-02T03:52:02.306Z,14.86
2023-09-02T03:54:29.858Z,14.75
2023-09-02T03:56:57.378Z,14.81
2023-09-02T03:59:25.391Z,14.77
2023-09-02T04:01:52.765Z,14.74
2023-09-02T04:04:20.758Z,14.66
2023-09-02T04:06:48.157Z,14.65
2023-09-02T04:09:16.320Z,14.73
2023-09-02T04:11:44.769Z,14.73
2023-09-02T04:14:12.061Z,14.70
2023-09-02T04:16:39.952Z,14.67
2023-09-02T04:19:07.782Z,14.81
2023-09-02T04:21:35.189Z,14.49
2023-09-02T04:24:02.696Z,14.53
2023-09-02T04:26:30.443Z,14.48
2023-09-02T04:28:57.975Z,14.21
2023-09-02T04:31:25.641Z,14.17
2023-09-02T04:33:53.730Z,14.35
2023-09-02T04:36:21.293Z,14.60
2023-09-02T04:38:48.649Z,14.65
2023-09-02T04:41:17.610Z,14.37
2023-09-02T04:43:45.411Z,14.39
2023-09-02T04:46:13.179Z,14.06
2023-09-02T04:48:43.415Z,14.31
2023-09-02T04:51:11.821Z,14.21
2023-09-02T04:53:39.390Z,14.34
2023-09-02T04:56:07.421Z,14.41
2023-09-02T04:58:35.168Z,14.75
2023-09-02T05:01:13.888Z,14.80
2023-09-02T05:03:41.869Z,14.87
2023-09-02T05:06:11.994Z,15.01
2023-09-02T05:08:40.030Z,15.06
2023-09-02T05:11:08.621Z,15.05
2023-09-02T05:13:36.293Z,14.95
2023-09-02T05:16:04.176Z,15.04
2023-09-02T05:18:31.876Z,14.90
2023-09-02T05:20:59.706Z,14.97
2023-09-02T05:23:27.088Z,15.18
2023-09-02T05:25:56.531Z,14.96
2023-09-02T05:28:25.092Z,15.13
2023-09-02T05:30:52.742Z,14.99
2023-09-02T05:33:20.935Z,15.36
2023-09-02T05:35:48.601Z,15.44
2023-09-02T05:38:15.946Z,15.63
2023-09-02T05:40:43.857Z,15.70
2023-09-02T05:43:11.215Z,15.80
2023-09-02T05:45:38.643Z,16.00
2023-09-02T05:48:07.086Z,16.15
2023-09-02T05:50:34.530Z,16.04
2023-09-02T05:53:02.048Z,16.30
2023-09-02T05:55:29.743Z,16.50
2023-09-02T05:57:57.103Z,16.56
2023-09-02T06:00:24.499Z,16.70
2023-09-02T06:02:52.436Z,16.97
2023-09-02T06:05:19.841Z,17.11
2023-09-02T06:07:47.174Z,17.24
2023-09-02T06:10:14.919Z,17.26
2023-09-02T06:12:42.348Z,17.40
2023-09-02T06:15:10.266Z,17.58
2023-09-02T06:17:37.948Z,17.85
2023-09-02T06:20:05.967Z,18.16
2023-09-02T06:22:33.426Z,18.34
2023-09-02T06:25:01.440Z,18.06
2023-09-02T06:27:29.804Z,18.44
2023-09-02T06:29:57.102Z,18.64
2023-09-02T06:32:25.651Z,18.95
2023-09-02T06:34:56.202Z,18.94
2023-09-02T06:37:23.584Z,19.02
2023-09-02T06:39:56.995Z,19.25
2023-09-02T06:42:24.717Z,19.40
2023-09-02T06:44:55.740Z,19.63
2023-09-02T06:47:23.285Z,19.74
2023-09-02T06:49:50.962Z,19.89
2023-09-02T06:52:18.854Z,19.65
2023-09-02T06:54:50.148Z,19.93
2023-09-02T06:57:17.772Z,20.30
2023-09-02T06:59:45.481Z,20.26
2023-09-02T07:02:12.816Z,20.55
2023-09-02T07:04:40.300Z,20.79
2023-09-02T07:07:08.039Z,20.97
2023-09-02T07:09:36.192Z,21.18
2023-09-02T07:12:03.745Z,21.53
2023-09-02T07:14:31.351Z,21.60
2023-09-02T07:16:58.846Z,21.87
2023-09-02T07:19:26.265Z,21.98
2023-09-02T07:21:53.917Z,22.30
2023-09-02T07:24:21.210Z,22.55
2023-09-02T07:26:48.617Z,22.65
2023-09-02T07:29:16.959Z,22.70
2023-09-02T07:31:44.465Z,23.11
2023-09-02T07:34:12.268Z,23.16
2023-09-02T07:36:40.259Z,22.79
2023-09-02T07:39:07.654Z,23.07
2023-09-02T07:41:35.027Z,22.97
2023-09-02T07:44:02.693Z,23.45
2023-09-02T07:46:30.007Z,23.39
2023-09-02T07:48:57.277Z,23.50
2023-09-02T07:51:25.026Z,23.72
2023-09-02T07:53:52.448Z,23.63
2023-09-02T07:56:19.838Z,23.66
2023-09-02T07:58:49.745Z,23.67
2023-09-02T08:01:17.111Z,23.79
2023-09-02T08:03:44.852Z,24.29
2023-09-02T08:06:12.341Z,24.13
2023-09-02T08:08:39.761Z,24.03
2023-09-02T08:11:07.767Z,23.87
2023-09-02T08:13:35.462Z,23.78
2023-09-02T08:16:08.778Z,24.10
2023-09-02T08:18:36.833Z,24.36
2023-09-02T08:21:11.154Z,24.38
2023-09-02T08:23:40.368Z,24.34
2023-09-02T08:26:13.673Z,24.39
2023-09-02T08:28:45.858Z,24.63
2023-09-02T08:31:19.507Z,24.74
2023-09-02T08:33:47.406Z,24.60
2023-09-02T08:36:18.566Z,24.71
2023-09-02T08:38:46.314Z,24.98
2023-09-02T08:41:23.725Z,25.20
2023-09-02T08:43:56.767Z,25.71
2023-09-02T08:46:28.404Z,25.81
2023-09-02T08:49:00.060Z,25.86
2023-09-02T08:51:28.754Z,25.80
2023-09-02T08:53:57.865Z,25.80
2023-09-02T08:56:25.615Z,25.96
2023-09-02T08:58:56.706Z,26.01
2023-09-02T09:01:25.200Z,26.05
2023-09-02T09:03:57.586Z,26.23
2023-09-02T09:06:26.379Z,26.27
2023-09-02T09:08:56.236Z,26.71
2023-09-02T09:11:26.223Z,26.51
2023-09-02T09:13:56.245Z,26.43
2023-09-02T09:16:35.676Z,26.59
2023-09-02T09:19:04.379Z,25.98
2023-09-02T09:21:32.054Z,25.90
2023-09-02T09:23:59.422Z,26.37
2023-09-02T09:26:27.713Z,26.30
2023-09-02T09:28:57.706Z,26.85
2023-09-02T09:31:26.939Z,27.15
2023-09-02T09:34:05.906Z,27.13
2023-09-02T09:36:33.336Z,27.05
2023-09-02T09:39:09.329Z,27.33
2023-09-02T09:41:45.526Z,27.77
2023-09-02T09:44:18.342Z,27.85
2023-09-02T09:46:45.699Z,27.95
2023-09-02T09:49:27.021Z,28.16
2023-09-02T09:52:00.720Z,28.32
2023-09-02T09:54:53.605Z,28.61
2023-09-02T09:57:39.938Z,28.80
2023-09-02T10:00:08.460Z,28.46
2023-09-02T10:02:36.322Z,28.23
2023-09-02T10:05:04.054Z,28.52
2023-09-02T10:07:34.853Z,28.34
2023-09-02T10:10:05.243Z,28.36
2023-09-02T10:12:39.599Z,27.61
2023-09-02T10:15:08.600Z,27.75
2023-09-02T10:17:36.736Z,27.42
2023-09-02T10:20:05.448Z,27.84
2023-09-02T10:22:35.321Z,28.30
2023-09-02T10:25:18.533Z,28.76
2023-09-02T10:27:50.917Z,28.77
2023-09-02T10:30:33.905Z,28.46
2023-09-02T10:33:19.443Z,28.47
2023-09-02T10:35:58.441Z,28.32
2023-09-02T10:38:29.378Z,28.02
2023-09-02T10:41:17.826Z,27.71
2023-09-02T10:43:47.476Z,27.57
2023-09-02T10:46:14.936Z,27.66
2023-09-02T10:48:46.241Z,27.19
2023-09-02T10:51:15.292Z,27.08
2023-09-02T10:53:54.767Z,27.05
2023-09-02T10:56:32.979Z,26.80
2023-09-02T10:59:02.310Z,26.84
2023-09-02T11:01:50.308Z,26.77
2023-09-02T11:04:44.865Z,26.94
2023-09-02T11:07:23.559Z,26.79
2023-09-02T11:09:55.663Z,26.84
2023-09-02T11:12:24.195Z,26.62
2023-09-02T11:15:10.165Z,26.73
2023-09-02T11:17:39.697Z,26.82
2023-09-02T11:20:15.350Z,26.82
2023-09-02T11:23:03.308Z,26.55
2023-09-02T11:25:44.966Z,26.81
2023-09-02T11:28:18.730Z,26.76
2023-09-02T11:31:14.507Z,26.64
2023-09-02T11:33:46.702Z,26.55
2023-09-02T11:36:17.110Z,26.37
2023-09-02T11:38:44.880Z,26.37
2023-09-02T11:41:26.250Z,26.69
2023-09-02T11:43:55.433Z,26.73
2023-09-02T11:46:23.119Z,27.35
2023-09-02T11:48:50.627Z,27.44
2023-09-02T11:51:18.659Z,27.98
2023-09-02T11:53:48.019Z,28.14
2023-09-02T11:56:15.508Z,28.30
2023-09-02T11:58:43.196Z,28.43
2023-09-02T12:01:10.485Z,28.46
2023-09-02T12:03:40.655Z,28.85
2023-09-02T12:06:08.488Z,28.98
2023-09-02T12:08:36.305Z,28.94
2023-09-02T12:11:05.132Z,28.65
2023-09-02T12:13:33.474Z,28.79
2023-09-02T12:16:01.085Z,28.97
2023-09-02T12:18:29.262Z,29.10
2023-09-02T12:20:57.490Z,29.38
2023-09-02T12:23:25.073Z,29.05
2023-09-02T12:26:14.385Z,29.34
2023-09-02T12:28:50.441Z,29.90
2023-09-02T12:31:18.680Z,30.27
2023-09-02T12:33:53.364Z,30.27
2023-09-02T12:36:21.256Z,30.20
2023-09-02T12:38:52.929Z,30.28
2023-09-02T12:41:20.672Z,30.33
2023-09-02T12:43:48.148Z,30.45
2023-09-02T12:46:22.850Z,30.34
2023-09-02T12:48:50.651Z,29.52
2023-09-02T12:51:29.751Z,30.07
2023-09-02T12:53:58.397Z,30.04
2023-09-02T12:56:25.749Z,30.22
2023-09-02T12:58:53.086Z,30.23
2023-09-02T13:01:20.841Z,30.39
2023-09-02T13:03:48.245Z,30.78
2023-09-02T13:06:15.767Z,30.74
2023-09-02T13:08:44.623Z,30.60
2023-09-02T13:11:12.084Z,30.88
2023-09-02T13:13:39.533Z,30.71
2023-09-02T13:16:07.400Z,30.79
2023-09-02T13:18:34.895Z,30.36
2023-09-02T13:21:02.489Z,30.73
2023-09-02T13:23:33.338Z,30.75
2023-09-02T13:26:01.140Z,30.46
2023-09-02T13:28:30.502Z,30.31
2023-09-02T13:30:58.188Z,29.47
2023-09-02T13:33:25.674Z,28.86
2023-09-02T13:35:53.173Z,29.16
2023-09-02T13:38:24.712Z,29.24
2023-09-02T13:40:52.244Z,29.16
2023-09-02T13:43:23.000Z,29.17
2023-09-02T13:45:53.544Z,29.03
2023-09-02T13:48:22.868Z,29.01
2023-09-02T13:50:51.876Z,29.43
2023-09-02T13:53:20.982Z,29.42
2023-09-02T13:55:49.217Z,29.18
2023-09-02T13:58:23.490Z,29.25
2023-09-02T14:00:53.148Z,28.93
2023-09-02T14:03:24.887Z,29.17
2023-09-02T14:05:54.582Z,29.42
2023-09-02T14:08:35.199Z,28.97
2023-09-02T14:11:02.958Z,29.67
2023-09-02T14:13:41.970Z,29.42
2023-09-02T14:16:09.895Z,29.58
2023-09-02T14:18:37.843Z,28.89
2023-09-02T14:21:05.467Z,28.79
2023-09-02T14:23:35.631Z,29.10
2023-09-02T14:26:03.365Z,29.23
2023-09-02T14:28:32.285Z,29.37
2023-09-02T14:30:59.931Z,29.55
2023-09-02T14:33:27.689Z,29.55
2023-09-02T14:35:55.152Z,29.31
2023-09-02T14:38:23.604Z,28.86
2023-09-02T14:40:50.929Z,29.06
2023-09-02T14:43:18.629Z,28.76
2023-09-02T14:45:46.446Z,28.37
2023-09-02T14:48:14.130Z,28.43
2023-09-02T14:50:42.639Z,28.47
2023-09-02T14:53:10.527Z,28.54
2023-09-02T14:55:38.926Z,28.50
2023-09-02T14:58:06.415Z,28.58
2023-09-02T15:00:34.264Z,28.57
2023-09-02T15:03:02.599Z,28.56
2023-09-02T15:05:34.802Z,28.51
2023-09-02T15:08:04.008Z,29.02
2023-09-02T15:10:31.423Z,29.69
2023-09-02T15:13:03.640Z,30.65
2023-09-02T15:15:39.074Z,31.75
2023-09-02T15:18:22.904Z,31.45
2023-09-02T15:20:54.058Z,31.79
2023-09-02T15:23:22.388Z,32.46
2023-09-02T15:25:56.991Z,32.86
2023-09-02T15:28:24.847Z,32.90
2023-09-02T15:30:52.206Z,32.94
2023-09-02T15:33:21.732Z,33.19
2023-09-02T15:35:49.846Z,32.69
2023-09-02T15:38:19.347Z,31.35
2023-09-02T15:40:46.832Z,29.70
2023-09-02T15:43:14.585Z,29.51
2023-09-02T15:45:42.722Z,29.64
2023-09-02T15:48:10.243Z,30.85
2023-09-02T15:50:39.323Z,30.39
2023-09-02T15:53:06.782Z,29.98
2023-09-02T15:55:34.124Z,29.58
2023-09-02T15:58:01.749Z,29.28
2023-09-02T16:00:29.139Z,28.62
2023-09-02T16:02:57.369Z,28.35
2023-09-02T16:05:24.860Z,28.37
2023-09-02T16:07:52.233Z,28.40
2023-09-02T16:10:20.320Z,27.67
2023-09-02T16:12:47.710Z,27.16
2023-09-02T16:15:15.545Z,27.14
2023-09-02T16:17:43.488Z,27.35
2023-09-02T16:20:12.295Z,27.23
2023-09-02T16:22:41.461Z,27.24
2023-09-02T16:25:11.020Z,27.22
2023-09-02T16:27:39.647Z,26.91
2023-09-02T16:30:11.545Z,26.91
2023-09-02T16:32:39.637Z,26.90
2023-09-02T16:35:07.503Z,26.69
2023-09-02T16:37:42.130Z,26.67
2023-09-02T16:40:11.959Z,26.51
2023-09-02T16:42:41.508Z,26.32
2023-09-02T16:45:11.016Z,26.13
2023-09-02T16:47:44.290Z,26.05
2023-09-02T16:50:13.038Z,25.87
2023-09-02T16:52:43.528Z,25.73
2023-09-02T16:55:11.503Z,25.53
2023-09-02T16:57:44.402Z,25.56
2023-09-02T17:00:13.734Z,25.56
2023-09-02T17:02:51.401Z,25.42
2023-09-02T17:05:26.779Z,25.46
2023-09-02T17:07:55.411Z,25.32
2023-09-02T17:10:29.677Z,25.11
2023-09-02T17:12:58.358Z,25.10
2023-09-02T17:15:39.249Z,24.95
2023-09-02T17:18:09.522Z,24.61
2023-09-02T17:20:46.940Z,24.71
2023-09-02T17:23:16.361Z,24.64
2023-09-02T17:25:46.437Z,24.69
2023-09-02T17:28:20.790Z,24.60
2023-09-02T17:30:53.970Z,24.68
2023-09-02T17:33:21.408Z,24.70
2023-09-02T17:35:48.747Z,24.46
2023-09-02T17:38:16.450Z,24.55
2023-09-02T17:40:43.861Z,24.47
2023-09-02T17:43:11.240Z,24.43
2023-09-02T17:45:39.015Z,24.41
2023-09-02T17:48:06.687Z,24.47
2023-09-02T17:50:34.052Z,24.46
2023-09-02T17:53:02.200Z,24.11
2023-09-02T17:57:56.822Z,24.34
2023-09-02T18:00:24.644Z,24.30
2023-09-02T18:02:52.524Z,24.01
2023-09-02T18:05:20.026Z,24.23
2023-09-02T18:07:47.358Z,24.03
2023-09-02T18:10:15.189Z,24.06
2023-09-02T18:12:42.632Z,23.92
2023-09-02T18:15:10.916Z,23.94
2023-09-02T18:17:39.089Z,23.75
2023-09-02T18:20:07.995Z,24.02
2023-09-02T18:22:35.653Z,23.46
2023-09-02T18:25:03.604Z,23.50
2023-09-02T18:27:31.434Z,23.55
2023-09-02T18:29:58.958Z,23.52
2023-09-02T18:32:26.749Z,23.52
2023-09-02T18:34:54.382Z,23.34
2023-09-02T18:37:21.735Z,23.29
2023-09-02T18:39:50.642Z,23.16
2023-09-02T18:42:18.121Z,23.19
2023-09-02T18:44:45.560Z,23.36
2023-09-02T18:47:14.118Z,23.16
2023-09-02T18:49:41.566Z,23.23
2023-09-02T18:52:08.924Z,23.15
2023-09-02T18:54:36.576Z,23.13
2023-09-02T18:57:04.290Z,23.02
2023-09-02T18:59:33.440Z,22.85
2023-09-02T19:02:01.186Z,22.84
2023-09-02T19:04:28.560Z,22.81
2023-09-02T19:06:55.929Z,22.90
2023-09-02T19:09:23.723Z,22.82
2023-09-02T19:11:51.108Z,22.65
2023-09-02T19:14:18.884Z,22.72
2023-09-02T19:16:46.581Z,22.66
2023-09-02T19:19:14.055Z,22.29
2023-09-02T19:21:41.982Z,22.38
2023-09-02T19:24:09.678Z,22.46
2023-09-02T19:26:37.101Z,22.16
2023-09-02T19:29:04.741Z,22.36
2023-09-02T19:31:32.586Z,22.00
2023-09-02T19:33:59.851Z,22.04
2023-09-02T19:36:30.870Z,22.03
2023-09-02T19:38:59.437Z,21.95
2023-09-02T19:41:26.834Z,21.86
2023-09-02T19:43:54.154Z,21.90
2023-09-02T19:46:22.143Z,21.95
2023-09-02T19:48:49.536Z,22.01
2023-09-02T19:51:17.041Z,21.79
2023-09-02T19:53:44.949Z,21.36
2023-09-02T19:56:13.211Z,21.62
2023-09-02T19:58:49.900Z,21.68
2023-09-02T20:01:27.651Z,21.48
2023-09-02T20:03:55.786Z,21.39
2023-09-02T20:06:23.242Z,21.44
2023-09-02T20:08:50.614Z,21.41
2023-09-02T20:11:18.309Z,21.23
2023-09-02T20:13:45.732Z,21.11
2023-09-02T20:16:13.247Z,21.10
2023-09-02T20:18:41.596Z,21.02
2023-09-02T20:21:12.584Z,20.86
2023-09-02T20:23:39.936Z,20.65
2023-09-02T20:26:17.869Z,20.56
2023-09-02T20:28:45.219Z,20.63
2023-09-02T20:31:17.572Z,20.55
2023-09-02T20:33:50.362Z,20.32
2023-09-02T20:36:19.866Z,20.29
2023-09-02T20:38:47.752Z,20.27
2023-09-02T20:41:16.194Z,19.81
2023-09-02T20:43:46.700Z,20.00
2023-09-02T20:46:14.853Z,19.86
2023-09-02T20:48:43.038Z,19.82
2023-09-02T20:51:12.246Z,19.84
2023-09-02T20:53:41.860Z,20.01
2023-09-02T20:56:12.071Z,20.02
2023-09-02T20:58:40.669Z,19.89
2023-09-02T21:01:08.889Z,19.78
2023-09-02T21:03:37.192Z,19.48
2023-09-02T21:06:08.988Z,19.60
2023-09-02T21:08:36.705Z,18.82
2023-09-02T21:11:10.652Z,19.08
2023-09-02T21:13:40.497Z,19.33
2023-09-02T21:16:16.899Z,19.25
2023-09-02T21:18:45.041Z,19.22
2023-09-02T21:21:23.969Z,19.21
2023-09-02T21:23:51.939Z,19.37
2023-09-02T21:26:19.333Z,19.30
2023-09-02T21:28:52.329Z,19.43
2023-09-02T21:31:20.445Z,19.56
2023-09-02T21:33:51.284Z,19.40
2023-09-02T21:36:19.780Z,19.32
2023-09-02T21:38:49.523Z,19.39
2023-09-02T21:41:17.053Z,19.14
2023-09-02T21:43:44.596Z,18.88
2023-09-02T21:46:13.524Z,18.91
2023-09-02T21:48:41.273Z,19.13
2023-09-02T21:51:11.968Z,18.97
2023-09-02T21:53:41.029Z,19.09
2023-09-02T21:56:08.584Z,19.03
2023-09-02T21:58:35.930Z,19.04
2023-09-02T22:01:07.709Z,18.84
2023-09-02T22:03:36.650Z,18.92
2023-09-02T22:06:06.802Z,18.89
2023-09-02T22:08:34.762Z,18.80
2023-09-02T22:11:02.474Z,18.77
2023-09-02T22:13:30.175Z,18.87
2023-09-02T22:15:58.013Z,18.45
2023-09-02T22:18:26.705Z,18.50
2023-09-02T22:20:58.578Z,18.40
2023-09-02T22:23:29.085Z,18.46
2023-09-02T22:26:05.387Z,18.53
2023-09-02T22:28:37.551Z,18.41
2023-09-02T22:31:06.035Z,18.29
2023-09-02T22:33:34.218Z,18.30
2023-09-02T22:36:02.506Z,18.13
2023-09-02T22:38:54.662Z,18.08
2023-09-02T22:41:22.658Z,18.08
2023-09-02T22:43:50.029Z,17.99
2023-09-02T22:46:17.544Z,18.04
2023-09-02T22:48:45.366Z,18.01
2023-09-02T22:51:12.723Z,18.21
2023-09-02T22:53:41.431Z,18.17
2023-09-02T22:56:13.792Z,17.99
2023-09-02T22:58:41.237Z,17.98
2023-09-02T23:01:14.104Z,18.01
2023-09-02T23:03:45.454Z,17.95
2023-09-02T23:06:14.176Z,17.99
2023-09-02T23:08:46.224Z,17.95
2023-09-02T23:11:14.060Z,18.05
2023-09-02T23:13:43.721Z,18.18
2023-09-02T23:16:11.148Z,17.88
2023-09-02T23:18:39.019Z,17.76
2023-09-02T23:21:14.179Z,17.93
2023-09-02T23:23:42.100Z,17.95
2023-09-02T23:26:10.040Z,17.98
2023-09-02T23:28:37.893Z,17.85
2023-09-02T23:31:06.036Z,17.68
2023-09-02T23:33:33.878Z,17.73
2023-09-02T23:36:04.290Z,17.19
2023-09-02T23:38:32.459Z,17.53
2023-09-02T23:40:59.900Z,17.39
2023-09-02T23:43:27.265Z,17.37
2023-09-02T23:45:55.157Z,17.42
2023-09-02T23:48:22.861Z,17.29
2023-09-02T23:50:51.803Z,17.23
2023-09-02T23:53:19.560Z,17.44
2023-09-02T23:55:48.382Z,17.43
2023-09-02T23:58:16.155Z,17.05
